Sacramento, California
Traffic Map
Current Weather Conditions
Sacramento, California
Clear
Clear
15°
Feels Like: 15°
Wind Chill: 15° Ceiling: Unl
Heat Index: 15° Visibility: 10mi
Dew Point: 12° Wind: 8mph
Humidity: 81% Direction: 180° (S)
Pressure: 29.92in Gusts: 0mph
Raw Report DataKSAC 271053Z AUTO 18007KT 10SM CLR 15/12 A2992 RMK AO2 SLP130 T01500117
Traffic Incident Summary
Active as of:
Severity:
Category:
InformationThere was an issue retrieving the traffic information for this location. Please try a different location or try again shortly.
Advertisements
Track Severe Weather on mobile